Time;durP1;ratioP1;P1;durP2;ratioP2;P2;SDS_P1;SDS_P2;PMS_P1;PMS_P2;Temp;Humidity;BMP_temperature;BMP_pressure;BME280_temperature;BME280_humidity;BME280_pressure;Samples;Min_cycle;Max_cycle;Signal;HPM_P1;HPM_P2
2023/11/24 00:01:06;;;;;;;24.13;4.45;;;;;;;8.94;100.00;101309.28;5042360;28;20035;-73
2023/11/24 00:03:32;;;;;;;24.80;4.50;;;;;;;8.97;100.00;101306.69;5043936;28;20041;-72
2023/11/24 00:05:57;;;;;;;23.45;4.57;;;;;;;8.92;100.00;101310.97;5043730;28;20439;-73
2023/11/24 00:08:22;;;;;;;23.80;4.40;;;;;;;8.92;100.00;101310.09;5042636;28;20032;-72
2023/11/24 00:10:48;;;;;;;24.52;4.50;;;;;;;8.97;100.00;101311.97;5044589;28;20025;-73
2023/11/24 00:13:13;;;;;;;26.23;4.53;;;;;;;8.93;100.00;101314.50;5041721;28;20388;-73
2023/11/24 00:15:42;;;;;;;22.80;4.65;;;;;;;8.91;100.00;101311.81;5044781;28;20025;-73
2023/11/24 00:18:08;;;;;;;25.30;4.53;;;;;;;8.88;100.00;101317.03;5041553;28;20033;-73
2023/11/24 00:20:33;;;;;;;25.17;5.35;;;;;;;8.98;100.00;101319.00;5044050;28;20087;-75
2023/11/24 00:22:59;;;;;;;24.15;4.45;;;;;;;8.91;100.00;101309.19;5042826;28;20021;-73
2023/11/24 00:25:24;;;;;;;22.45;4.20;;;;;;;8.82;100.00;101314.31;5042415;28;20055;-75
2023/11/24 00:27:51;;;;;;;26.30;4.10;;;;;;;8.79;100.00;101312.47;5044182;28;20041;-73
2023/11/24 00:30:18;;;;;;;24.23;4.40;;;;;;;8.81;100.00;101317.78;5041466;28;20025;-72
2023/11/24 00:32:44;;;;;;;25.05;4.78;;;;;;;8.69;100.00;101329.91;5044643;28;20544;-75
2023/11/24 00:35:10;;;;;;;24.58;4.63;;;;;;;8.70;100.00;101331.66;5037317;28;20060;-73
2023/11/24 00:37:35;;;;;;;25.33;4.43;;;;;;;8.64;100.00;101334.16;5043902;28;20021;-76
2023/11/24 00:40:07;;;;;;;24.65;4.40;;;;;;;8.76;100.00;101319.47;5042223;28;20036;-73
2023/11/24 00:42:35;;;;;;;24.40;4.80;;;;;;;8.63;100.00;101328.88;5043665;28;20461;-73
2023/11/24 00:45:01;;;;;;;25.67;4.93;;;;;;;8.66;100.00;101307.84;5042356;28;20488;-73
2023/11/24 00:47:26;;;;;;;23.10;4.43;;;;;;;8.54;100.00;101316.41;5042330;28;20073;-73
2023/11/24 00:49:51;;;;;;;26.95;4.82;;;;;;;8.51;100.00;101329.50;5043704;28;20032;-75
2023/11/24 00:52:17;;;;;;;26.75;4.45;;;;;;;8.50;100.00;101346.16;5041435;28;20065;-72
2023/11/24 00:54:42;;;;;;;24.98;4.40;;;;;;;8.50;100.00;101359.34;5044366;28;20060;-73
2023/11/24 00:57:07;;;;;;;23.33;4.50;;;;;;;8.61;100.00;101355.19;5041338;28;20033;-73
2023/11/24 00:59:33;;;;;;;21.65;4.07;;;;;;;8.42;100.00;101360.88;5043225;28;20026;-72
2023/11/24 01:01:58;;;;;;;19.42;3.40;;;;;;;8.20;100.00;101355.19;5042405;28;20053;-72
2023/11/24 01:04:24;;;;;;;18.50;3.30;;;;;;;8.07;100.00;101368.91;5042262;28;20025;-75
2023/11/24 01:06:50;;;;;;;19.67;3.40;;;;;;;7.98;100.00;101364.31;5042268;28;20124;-73
2023/11/24 01:09:15;;;;;;;19.85;3.50;;;;;;;7.92;100.00;101353.63;5041144;28;20109;-73
2023/11/24 01:11:41;;;;;;;22.08;3.47;;;;;;;7.86;100.00;101341.22;5044266;28;20466;-72
2023/11/24 01:14:06;;;;;;;18.30;3.50;;;;;;;7.79;100.00;101352.47;5041542;28;20424;-73
2023/11/24 01:16:32;;;;;;;19.17;3.35;;;;;;;7.77;100.00;101352.41;5043691;28;20400;-73
2023/11/24 01:18:59;;;;;;;17.30;2.92;;;;;;;7.71;100.00;101356.66;5042320;28;20387;-73
2023/11/24 01:21:25;;;;;;;22.23;3.38;;;;;;;7.67;100.00;101359.22;5040597;28;20041;-73
2023/11/24 01:23:50;;;;;;;19.48;3.40;;;;;;;7.65;100.00;101344.25;5043575;28;20025;-73
2023/11/24 01:26:16;;;;;;;21.23;3.70;;;;;;;7.60;100.00;101341.50;5040707;28;20121;-72
2023/11/24 01:28:43;;;;;;;16.40;2.92;;;;;;;7.63;100.00;101341.59;5044289;28;20029;-72
2023/11/24 01:31:09;;;;;;;18.48;3.00;;;;;;;7.63;100.00;101336.31;5041346;28;20028;-72
2023/11/24 01:33:35;;;;;;;18.27;2.88;;;;;;;7.61;100.00;101327.47;5041823;28;20041;-73
2023/11/24 01:36:00;;;;;;;14.57;2.80;;;;;;;7.42;100.00;101326.13;5041944;28;20480;-72
2023/11/24 01:38:26;;;;;;;17.60;3.08;;;;;;;7.37;100.00;101324.25;5044151;28;20476;-71
2023/11/24 01:40:51;;;;;;;18.13;2.90;;;;;;;7.28;100.00;101322.28;5047001;28;20029;-73
2023/11/24 01:43:17;;;;;;;15.20;2.80;;;;;;;7.37;100.00;101324.25;5044732;28;20044;-73
2023/11/24 01:45:45;;;;;;;18.08;2.90;;;;;;;7.25;100.00;101324.81;5048137;28;20041;-73
2023/11/24 01:48:11;;;;;;;17.45;2.72;;;;;;;7.32;100.00;101319.78;5044129;28;20554;-72
2023/11/24 01:50:37;;;;;;;15.30;2.72;;;;;;;7.33;100.00;101332.06;5045753;28;20045;-73
2023/11/24 01:53:04;;;;;;;19.30;3.10;;;;;;;7.31;100.00;101341.66;5044313;28;20036;-72
2023/11/24 01:55:29;;;;;;;16.95;2.70;;;;;;;7.30;100.00;101345.13;5046183;28;20022;-73
2023/11/24 01:57:55;;;;;;;18.75;2.88;;;;;;;7.23;100.00;101343.19;5046296;28;20039;-73
2023/11/24 02:00:23;;;;;;;18.65;3.15;;;;;;;7.33;100.00;101342.56;5044981;28;20034;-72
2023/11/24 02:02:49;;;;;;;15.77;2.95;;;;;;;7.25;100.00;101343.22;5045784;28;20029;-73
2023/11/24 02:05:16;;;;;;;20.30;3.13;;;;;;;7.12;100.00;101344.66;5043974;28;20022;-72
2023/11/24 02:07:42;;;;;;;19.42;3.45;;;;;;;7.19;100.00;101343.06;5040034;28;20461;-73
2023/11/24 02:10:10;;;;;;;18.48;3.10;;;;;;;7.23;100.00;101351.09;5046701;28;20033;-71
2023/11/24 02:12:36;;;;;;;17.98;3.25;;;;;;;7.15;100.00;101361.41;5044602;28;20025;-73
2023/11/24 02:15:01;;;;;;;17.80;2.95;;;;;;;7.16;100.00;101349.13;5046028;28;20036;-72
2023/11/24 02:17:27;;;;;;;21.60;3.20;;;;;;;7.19;100.00;101338.69;5045567;28;20135;-73
2023/11/24 02:19:52;;;;;;;19.80;3.22;;;;;;;7.19;100.00;101333.44;5044460;28;20045;-73
2023/11/24 02:22:18;;;;;;;18.10;3.03;;;;;;;7.24;100.00;101323.94;5046998;28;20078;-74
2023/11/24 02:24:43;;;;;;;17.77;3.10;;;;;;;7.25;100.00;101338.88;5043607;28;20028;-73
2023/11/24 02:27:08;;;;;;;19.52;3.22;;;;;;;7.13;100.00;101328.91;5046773;28;20483;-73
2023/11/24 02:29:34;;;;;;;17.77;2.92;;;;;;;7.19;100.00;101328.19;5044702;28;20029;-72
2023/11/24 02:31:59;;;;;;;17.50;3.03;;;;;;;7.10;100.00;101335.84;5045486;28;20040;-75
2023/11/24 02:34:25;;;;;;;17.50;2.88;;;;;;;7.05;100.00;101337.44;5046133;28;20115;-72
2023/11/24 02:36:50;;;;;;;19.98;3.13;;;;;;;6.95;100.00;101324.06;5043926;28;20033;-73
2023/11/24 02:39:16;;;;;;;17.50;2.95;;;;;;;6.98;100.00;101337.28;5046767;28;20037;-73
2023/11/24 02:41:42;;;;;;;16.33;3.00;;;;;;;7.10;100.00;101338.47;5039464;28;20037;-76
2023/11/24 02:44:07;;;;;;;17.90;2.85;;;;;;;7.24;100.00;101330.97;5046313;28;20037;-73
2023/11/24 02:46:32;;;;;;;16.00;2.60;;;;;;;7.13;100.00;101326.28;5044368;28;20032;-72
2023/11/24 02:48:58;;;;;;;17.08;2.60;;;;;;;7.05;100.00;101325.22;5043691;28;20049;-73
2023/11/24 02:51:24;;;;;;;12.63;2.58;;;;;;;6.97;100.00;101317.13;5045409;28;20036;-75
2023/11/24 02:53:49;;;;;;;13.13;2.35;;;;;;;6.96;100.00;101320.59;5043411;28;20044;-74
2023/11/24 02:56:15;;;;;;;12.43;2.40;;;;;;;6.85;100.00;101295.75;5046870;28;20029;-75
2023/11/24 02:58:40;;;;;;;12.55;2.40;;;;;;;6.87;100.00;101278.28;5042990;28;20034;-74
2023/11/24 03:01:05;;;;;;;14.75;2.35;;;;;;;6.77;100.00;101273.63;5045797;28;20021;-75
2023/11/24 03:03:31;;;;;;;14.63;2.30;;;;;;;6.73;100.00;101263.91;5044296;28;20033;-74
2023/11/24 03:06:01;;;;;;;13.15;2.30;;;;;;;6.66;100.00;101264.59;5044251;28;20042;-74
2023/11/24 03:08:26;;;;;;;11.25;2.20;;;;;;;6.62;100.00;101255.72;5045010;28;20412;-75
2023/11/24 03:10:52;;;;;;;15.13;2.40;;;;;;;6.54;100.00;101252.91;5043448;28;20032;-75
2023/11/24 03:13:19;;;;;;;13.65;2.25;;;;;;;6.44;100.00;101250.88;5045983;28;20107;-75
2023/11/24 03:15:45;;;;;;;9.20;2.20;;;;;;;6.40;100.00;101249.00;5042874;28;20164;-74
2023/11/24 03:18:12;;;;;;;11.88;2.22;;;;;;;6.39;100.00;101234.06;5045608;28;20108;-75
2023/11/24 03:20:37;;;;;;;11.07;2.20;;;;;;;6.23;100.00;101235.38;5043199;28;20057;-74
2023/11/24 03:23:03;;;;;;;9.88;1.92;;;;;;;6.15;100.00;101229.91;5045088;28;20460;-75
2023/11/24 03:25:29;;;;;;;12.48;2.45;;;;;;;6.09;100.00;101229.75;5044279;28;20025;-75
2023/11/24 03:27:54;;;;;;;13.80;2.30;;;;;;;6.04;100.00;101229.63;5043459;28;20484;-74
2023/11/24 03:30:19;;;;;;;13.80;2.53;;;;;;;5.99;100.00;101227.72;5045502;28;20033;-73
2023/11/24 03:32:45;;;;;;;13.48;2.20;;;;;;;5.92;100.00;101218.72;5042332;28;20035;-72
2023/11/24 03:35:10;;;;;;;12.68;2.30;;;;;;;5.87;100.00;101223.84;5045534;28;20111;-72
2023/11/24 03:37:37;;;;;;;13.50;2.42;;;;;;;5.93;100.00;101229.25;5043187;28;20119;-72
2023/11/24 03:40:03;;;;;;;15.57;2.40;;;;;;;5.91;100.00;101233.59;5044216;28;20515;-72
2023/11/24 03:42:28;;;;;;;13.63;2.28;;;;;;;5.74;100.00;101240.94;5043967;28;20032;-72
2023/11/24 03:44:53;;;;;;;12.80;2.25;;;;;;;5.70;100.00;101239.06;5041999;28;20029;-73
2023/11/24 03:47:19;;;;;;;12.57;2.40;;;;;;;5.83;100.00;101235.09;5045033;28;20117;-73
2023/11/24 03:49:45;;;;;;;17.05;2.42;;;;;;;5.72;100.00;101226.00;5041601;28;20069;-72
2023/11/24 03:52:10;;;;;;;14.13;2.47;;;;;;;5.77;100.00;101229.66;5045304;28;20152;-73
2023/11/24 03:54:35;;;;;;;13.00;2.20;;;;;;;5.68;100.00;101230.28;5042669;28;20029;-72
2023/11/24 03:57:01;;;;;;;14.05;2.47;;;;;;;5.55;100.00;101234.25;5043884;28;20029;-72
2023/11/24 03:59:26;;;;;;;16.05;2.40;;;;;;;5.58;100.00;101228.22;5043867;28;20102;-73
2023/11/24 04:01:52;;;;;;;13.35;2.20;;;;;;;5.44;100.00;101230.38;5041970;28;20083;-72
2023/11/24 04:04:17;;;;;;;14.73;2.60;;;;;;;5.49;100.00;101223.56;5045446;28;20067;-73
2023/11/24 04:06:43;;;;;;;14.85;2.30;;;;;;;5.45;100.00;101236.53;5037677;28;20029;-73
2023/11/24 04:09:09;;;;;;;14.18;2.30;;;;;;;5.46;100.00;101233.97;5043175;28;20428;-72
2023/11/24 04:11:35;;;;;;;13.90;2.53;;;;;;;5.42;100.00;101232.09;5042803;28;20033;-74
2023/11/24 04:14:00;;;;;;;13.57;2.65;;;;;;;5.51;100.00;101228.88;5043265;28;20389;-74
2023/11/24 04:16:26;;;;;;;15.77;2.70;;;;;;;5.45;100.00;101226.06;5043812;28;20059;-75
2023/11/24 04:18:51;;;;;;;17.00;2.83;;;;;;;5.44;100.00;101229.50;5042008;28;20366;-75
2023/11/24 04:21:16;;;;;;;17.80;2.70;;;;;;;5.41;100.00;101230.28;5044828;28;20039;-75
2023/11/24 04:23:42;;;;;;;15.48;2.40;;;;;;;5.32;100.00;101227.41;5041453;28;20105;-74
2023/11/24 04:26:07;;;;;;;16.33;2.70;;;;;;;5.22;100.00;101224.47;5044233;28;20047;-74
2023/11/24 04:28:33;;;;;;;18.45;2.90;;;;;;;5.19;100.00;101226.97;5042521;28;20078;-74
2023/11/24 04:30:58;;;;;;;16.40;2.70;;;;;;;5.07;100.00;101219.63;5042790;28;20484;-74
2023/11/24 04:33:24;;;;;;;17.98;2.75;;;;;;;5.03;100.00;101222.09;5044029;28;20472;-75
2023/11/24 04:35:50;;;;;;;17.13;2.97;;;;;;;4.95;100.00;101219.22;5041491;28;20091;-74
2023/11/24 04:38:16;;;;;;;16.67;2.70;;;;;;;4.98;100.00;101207.94;5044714;28;20023;-74
2023/11/24 04:40:42;;;;;;;20.48;3.63;;;;;;;4.95;100.00;101213.06;5041498;28;20033;-74
2023/11/24 04:43:07;;;;;;;18.35;2.92;;;;;;;4.97;100.00;101212.28;5043746;28;20492;-75
2023/11/24 04:45:32;;;;;;;17.42;2.90;;;;;;;4.92;100.00;101197.25;5042605;28;20079;-75
2023/11/24 04:47:58;;;;;;;18.02;2.90;;;;;;;4.96;100.00;101199.16;5042367;28;20025;-74
2023/11/24 04:50:23;;;;;;;20.30;3.22;;;;;;;5.02;100.00;101189.78;5043499;28;20488;-75
2023/11/24 04:52:48;;;;;;;19.02;2.95;;;;;;;5.14;100.00;101183.13;5041088;28;20048;-75
2023/11/24 04:55:15;;;;;;;19.58;3.00;;;;;;;5.24;100.00;101191.34;5044477;28;20111;-74
2023/11/24 04:57:41;;;;;;;18.15;3.05;;;;;;;5.31;100.00;101191.53;5041437;28;20034;-75
2023/11/24 05:00:07;;;;;;;20.23;3.22;;;;;;;5.37;100.00;101195.25;5043468;28;20034;-74
2023/11/24 05:02:33;;;;;;;19.45;3.00;;;;;;;5.40;100.00;101199.66;5041081;28;20037;-75
2023/11/24 05:04:59;;;;;;;16.40;3.00;;;;;;;5.53;100.00;101193.97;5042201;28;20036;-75
2023/11/24 05:07:25;;;;;;;20.45;3.58;;;;;;;5.47;100.00;101191.16;5043504;28;20029;-74
2023/11/24 05:09:50;;;;;;;18.63;3.03;;;;;;;5.52;100.00;101191.28;5041116;28;20022;-74
2023/11/24 05:12:16;;;;;;;18.80;2.90;;;;;;;5.67;100.00;101176.03;5044434;28;20702;-75
2023/11/24 05:14:41;;;;;;;20.17;3.10;;;;;;;5.78;100.00;101175.44;5045298;28;20037;-74
2023/11/24 05:17:06;;;;;;;19.00;2.90;;;;;;;5.81;100.00;101176.44;5047298;28;20409;-74
2023/11/24 05:19:32;;;;;;;17.00;2.80;;;;;;;5.78;100.00;101171.06;5046291;28;20044;-74
2023/11/24 05:21:57;;;;;;;17.85;3.13;;;;;;;5.80;100.00;101171.16;5046436;28;20026;-75
2023/11/24 05:24:23;;;;;;;19.85;2.97;;;;;;;5.79;100.00;101170.25;5047667;28;20522;-75
2023/11/24 05:26:48;;;;;;;22.08;3.40;;;;;;;5.76;100.00;101165.78;5043714;28;20025;-72
2023/11/24 05:29:14;;;;;;;19.45;3.28;;;;;;;5.71;100.00;101159.53;5040673;28;20040;-73
2023/11/24 05:31:40;;;;;;;21.75;3.72;;;;;;;5.71;100.00;101161.28;5047477;28;20025;-73
2023/11/24 05:34:06;;;;;;;20.75;3.30;;;;;;;5.73;100.00;101164.81;5045766;28;20025;-73
2023/11/24 05:36:33;;;;;;;20.60;3.30;;;;;;;5.86;100.00;101169.56;5046448;28;20074;-73
2023/11/24 05:38:59;;;;;;;22.00;3.53;;;;;;;5.84;100.00;101179.16;5046435;28;20036;-73
2023/11/24 05:41:26;;;;;;;19.75;3.40;;;;;;;5.74;100.00;101158.75;5045364;28;20385;-73
2023/11/24 05:43:51;;;;;;;22.40;3.47;;;;;;;5.71;100.00;101161.28;5047315;28;20028;-72
2023/11/24 05:46:17;;;;;;;23.60;3.70;;;;;;;5.53;100.00;101152.03;5044353;28;20038;-72
2023/11/24 05:48:42;;;;;;;21.35;3.40;;;;;;;5.42;100.00;101156.03;5047446;28;20132;-73
2023/11/24 05:51:07;;;;;;;19.50;3.10;;;;;;;5.33;100.00;101166.22;5045144;28;20061;-73
2023/11/24 05:53:33;;;;;;;22.00;3.30;;;;;;;5.17;100.00;101157.91;5046133;28;20022;-73
2023/11/24 05:55:59;;;;;;;20.02;3.55;;;;;;;5.05;100.00;101157.50;5046375;28;20073;-72
2023/11/24 05:58:24;;;;;;;20.98;3.63;;;;;;;4.98;100.00;101160.75;5044789;28;20476;-72
2023/11/24 06:00:50;;;;;;;21.45;3.30;;;;;;;5.02;100.00;101157.41;5047352;28;20031;-72
2023/11/24 06:03:16;;;;;;;19.90;3.17;;;;;;;5.11;100.00;101170.81;5044313;28;20030;-72
2023/11/24 06:05:41;;;;;;;19.35;3.28;;;;;;;5.14;100.00;101160.44;5047023;28;20031;-73
2023/11/24 06:08:07;;;;;;;19.63;3.53;;;;;;;5.27;100.00;101155.56;5044952;28;20025;-73
2023/11/24 06:10:32;;;;;;;19.27;3.05;;;;;;;5.28;100.00;101141.63;5044957;28;20436;-72
2023/11/24 06:12:58;;;;;;;20.00;3.00;;;;;;;5.31;100.00;101149.56;5045965;28;20029;-73
2023/11/24 06:15:24;;;;;;;20.02;3.13;;;;;;;5.32;100.00;101144.38;5044661;28;20022;-72
2023/11/24 06:17:49;;;;;;;20.77;3.40;;;;;;;5.45;100.00;101144.78;5047051;28;20032;-72
2023/11/24 06:20:16;;;;;;;18.70;3.17;;;;;;;5.49;100.00;101158.00;5043609;28;20487;-72
2023/11/24 06:22:43;;;;;;;16.52;2.78;;;;;;;5.55;100.00;101152.06;5046943;28;20029;-73
2023/11/24 06:25:10;;;;;;;18.08;2.80;;;;;;;5.75;100.00;101164.03;5043952;28;20017;-73
2023/11/24 06:27:36;;;;;;;11.35;2.30;;;;;;;5.91;100.00;101151.31;5044489;28;20040;-73
2023/11/24 06:30:05;;;;;;;12.52;2.30;;;;;;;5.90;100.00;101155.69;5045406;28;20033;-72
2023/11/24 06:32:30;;;;;;;13.20;2.20;;;;;;;5.88;100.00;101144.28;5045108;28;20025;-73
2023/11/24 06:34:56;;;;;;;12.02;2.28;;;;;;;5.78;100.00;101131.72;5046156;28;20086;-72
2023/11/24 06:37:21;;;;;;;11.65;2.20;;;;;;;5.78;100.00;101136.97;5044239;28;20071;-73
2023/11/24 06:39:46;;;;;;;14.32;2.28;;;;;;;5.63;100.00;101137.41;5046716;28;20029;-73
2023/11/24 06:42:12;;;;;;;15.63;2.33;;;;;;;5.62;100.00;101140.00;5043826;28;20033;-73
2023/11/24 06:44:37;;;;;;;13.68;2.67;;;;;;;5.63;100.00;101131.31;5046039;28;20057;-72
2023/11/24 06:47:03;;;;;;;15.98;2.40;;;;;;;5.51;100.00;101127.47;5044817;28;20029;-73
2023/11/24 06:49:29;;;;;;;12.65;2.25;;;;;;;5.48;100.00;101126.50;5044082;28;20059;-73
2023/11/24 06:51:55;;;;;;;14.13;2.67;;;;;;;5.39;100.00;101134.97;5046037;28;20037;-72
2023/11/24 06:54:21;;;;;;;15.55;2.47;;;;;;;5.49;100.00;101139.66;5043112;28;20091;-73
2023/11/24 06:56:46;;;;;;;15.75;2.70;;;;;;;5.45;100.00;101166.63;5046668;28;20067;-73
2023/11/24 06:59:11;;;;;;;15.18;2.60;;;;;;;5.42;100.00;101150.81;5043383;28;20041;-72
2023/11/24 07:01:37;;;;;;;13.18;2.22;;;;;;;5.47;100.00;101151.81;5045294;28;20042;-73
2023/11/24 07:04:04;;;;;;;15.80;2.65;;;;;;;5.42;100.00;101156.03;5044409;28;20029;-74
2023/11/24 07:06:29;;;;;;;14.02;3.10;;;;;;;5.28;100.00;101165.22;5044355;28;20039;-73
2023/11/24 07:08:55;;;;;;;16.95;2.45;;;;;;;5.29;100.00;101161.75;5045396;28;20025;-73
2023/11/24 07:11:20;;;;;;;13.13;2.38;;;;;;;5.34;100.00;101154.91;5043068;28;20396;-73
2023/11/24 07:13:45;;;;;;;11.23;2.50;;;;;;;5.33;100.00;101143.53;5046179;28;20041;-73
2023/11/24 07:16:11;;;;;;;14.82;3.13;;;;;;;5.38;100.00;101131.44;5043086;28;20036;-72
2023/11/24 07:18:36;;;;;;;17.73;2.50;;;;;;;5.35;100.00;101139.22;5045031;28;20431;-73
2023/11/24 07:21:02;;;;;;;14.95;2.40;;;;;;;5.33;100.00;101133.06;5044502;28;20074;-73
2023/11/24 07:23:27;;;;;;;16.10;2.80;;;;;;;5.24;100.00;101120.56;5043472;28;20029;-73
2023/11/24 07:25:54;;;;;;;14.95;2.50;;;;;;;5.19;100.00;101118.63;5045850;28;20029;-73
2023/11/24 07:28:20;;;;;;;13.85;2.38;;;;;;;5.16;100.00;101119.44;5042457;28;20486;-72
2023/11/24 07:30:46;;;;;;;15.73;2.38;;;;;;;5.21;100.00;101125.72;5038458;28;20117;-73
2023/11/24 07:33:12;;;;;;;15.20;2.50;;;;;;;5.07;100.00;101127.00;5045375;28;20112;-73
2023/11/24 07:35:38;;;;;;;18.05;2.75;;;;;;;5.08;100.00;101123.53;5042572;28;20111;-72
2023/11/24 07:38:04;;;;;;;16.65;2.60;;;;;;;5.18;100.00;101125.59;5044333;28;20460;-72
2023/11/24 07:40:30;;;;;;;15.23;2.58;;;;;;;5.26;100.00;101130.19;5044395;28;20543;-73
2023/11/24 07:42:55;;;;;;;18.65;3.00;;;;;;;5.35;100.00;101126.13;5042941;28;20041;-72
2023/11/24 07:45:21;;;;;;;18.27;2.60;;;;;;;5.44;100.00;101130.75;5045286;28;20009;-73
2023/11/24 07:47:46;;;;;;;16.58;2.67;;;;;;;5.57;100.00;101124.13;5042231;28;20462;-73
2023/11/24 07:50:11;;;;;;;16.40;2.70;;;;;;;5.70;100.00;101143.75;5044699;28;20045;-72
2023/11/24 07:52:37;;;;;;;18.75;3.00;;;;;;;5.80;100.00;101132.66;5042997;28;20043;-73
2023/11/24 07:55:02;;;;;;;16.67;2.75;;;;;;;5.84;100.00;101155.53;5044005;28;20030;-72
2023/11/24 07:57:28;;;;;;;18.30;2.70;;;;;;;5.87;100.00;101157.38;5044034;28;20377;-73
2023/11/24 07:59:54;;;;;;;16.17;2.85;;;;;;;5.65;100.00;101158.44;5041085;28;20033;-73
2023/11/24 08:02:19;;;;;;;16.92;2.80;;;;;;;5.54;100.00;101151.16;5045229;28;20088;-74
2023/11/24 08:04:45;;;;;;;16.45;2.72;;;;;;;5.49;100.00;101152.78;5041655;28;20530;-73
2023/11/24 08:07:10;;;;;;;20.52;3.05;;;;;;;5.54;100.00;101148.53;5044781;28;20028;-72
2023/11/24 08:09:36;;;;;;;18.67;3.05;;;;;;;5.52;100.00;101141.47;5042806;28;20035;-73
2023/11/24 08:12:04;;;;;;;15.77;2.60;;;;;;;5.49;100.00;101141.38;5043100;28;20489;-72
2023/11/24 08:14:30;;;;;;;18.08;2.75;;;;;;;5.41;100.00;101128.91;5043823;28;20116;-75
2023/11/24 08:16:56;;;;;;;17.00;2.97;;;;;;;5.41;100.00;101130.66;5042203;28;20028;-73
2023/11/24 08:19:25;;;;;;;16.45;2.78;;;;;;;5.48;100.00;101122.13;5044546;28;20033;-72
2023/11/24 08:21:51;;;;;;;16.67;2.83;;;;;;;5.44;100.00;101122.88;5041651;28;20040;-73
2023/11/24 08:24:16;;;;;;;16.13;2.97;;;;;;;5.44;100.00;101114.13;5044725;28;20029;-72
2023/11/24 08:26:42;;;;;;;16.85;2.72;;;;;;;5.40;100.00;101107.91;5041845;28;20025;-73
2023/11/24 08:29:07;;;;;;;16.02;2.70;;;;;;;5.45;100.00;101105.44;5043863;28;20431;-73
2023/11/24 08:31:33;;;;;;;14.75;2.90;;;;;;;5.48;100.00;101109.03;5042942;28;20464;-75
2023/11/24 08:33:59;;;;;;;15.52;2.53;;;;;;;5.54;100.00;101106.56;5042296;28;20148;-74
2023/11/24 08:36:25;;;;;;;15.65;2.67;;;;;;;5.55;100.00;101108.34;5044298;28;20036;-72
2023/11/24 08:38:51;;;;;;;14.60;2.40;;;;;;;5.47;100.00;101119.47;5041192;28;20033;-72
2023/11/24 08:41:17;;;;;;;12.98;2.80;;;;;;;5.46;100.00;101130.78;5044749;28;20044;-72
2023/11/24 08:43:46;;;;;;;14.57;2.33;;;;;;;5.29;100.00;101143.41;5041509;28;20480;-72
2023/11/24 08:46:12;;;;;;;11.75;2.25;;;;;;;5.26;100.00;101152.06;5043966;28;20040;-72
2023/11/24 08:48:39;;;;;;;12.95;2.63;;;;;;;5.23;100.00;101131.88;5042345;28;20025;-73
2023/11/24 08:51:07;;;;;;;12.13;2.30;;;;;;;5.04;100.00;101124.31;5043051;28;20132;-73
2023/11/24 08:53:35;;;;;;;10.50;1.90;;;;;;;4.99;100.00;101099.66;5042610;28;20040;-72
2023/11/24 08:56:03;;;;;;;11.27;2.15;;;;;;;4.98;100.00;101097.88;5042301;28;20021;-72
2023/11/24 08:58:29;;;;;;;7.50;1.80;;;;;;;4.88;100.00;101102.84;5043539;28;20029;-72
2023/11/24 09:00:55;;;;;;;10.85;2.33;;;;;;;4.85;100.00;101097.50;5041439;28;20389;-74
2023/11/24 09:03:24;;;;;;;8.82;2.10;;;;;;;4.91;100.00;101086.34;5044282;28;20174;-73
2023/11/24 09:05:52;;;;;;;8.18;1.85;;;;;;;4.89;100.00;101077.53;5037497;28;20026;-75
2023/11/24 09:08:19;;;;;;;8.73;2.00;;;;;;;4.91;100.00;101074.94;5036995;28;20084;-73
2023/11/24 09:10:44;;;;;;;9.65;2.03;;;;;;;5.04;100.00;101072.78;5044278;28;20041;-74
2023/11/24 09:13:13;;;;;;;10.80;2.10;;;;;;;5.11;100.00;101071.25;5036366;28;20432;-74
2023/11/24 09:15:42;;;;;;;10.32;2.22;;;;;;;5.20;100.00;101076.75;5041952;28;20029;-74
2023/11/24 09:18:08;;;;;;;7.65;2.00;;;;;;;5.21;100.00;101078.53;5041392;28;20495;-74
2023/11/24 09:20:33;;;;;;;9.73;2.10;;;;;;;5.24;100.00;101089.09;5042836;28;20037;-74
2023/11/24 09:22:58;;;;;;;9.15;2.00;;;;;;;5.18;100.00;101086.28;5041287;28;20033;-74
2023/11/24 09:25:24;;;;;;;8.07;2.00;;;;;;;5.06;100.00;101085.91;5042774;28;20026;-75
2023/11/24 09:27:49;;;;;;;11.23;2.10;;;;;;;4.93;100.00;101089.88;5041095;28;20535;-75
2023/11/24 09:30:15;;;;;;;10.02;2.53;;;;;;;4.96;100.00;101084.75;5044027;28;20029;-74
2023/11/24 09:32:42;;;;;;;12.20;2.20;;;;;;;4.91;100.00;101090.66;5041747;28;20033;-75
2023/11/24 09:35:08;;;;;;;10.70;2.20;;;;;;;4.96;100.00;101087.34;5042840;28;20033;-74
2023/11/24 09:37:34;;;;;;;13.02;2.40;;;;;;;5.08;100.00;101086.84;5042427;28;20098;-75
2023/11/24 09:40:02;;;;;;;8.35;1.90;;;;;;;5.22;100.00;101085.53;5041141;28;20025;-75
2023/11/24 09:42:32;;;;;;;12.38;2.15;;;;;;;5.32;100.00;101080.59;5043335;28;20040;-74
2023/11/24 09:45:00;;;;;;;11.55;2.60;;;;;;;5.38;100.00;101078.13;5040715;28;20036;-75
2023/11/24 09:47:26;;;;;;;12.70;2.20;;;;;;;5.37;100.00;101074.63;5043499;28;20045;-74
2023/11/24 09:49:53;;;;;;;15.50;2.78;;;;;;;5.33;100.00;101069.22;5040498;28;20084;-75
2023/11/24 09:52:20;;;;;;;12.70;2.40;;;;;;;5.34;100.00;101073.63;5036461;28;20079;-75
2023/11/24 09:54:46;;;;;;;11.98;2.17;;;;;;;5.53;100.00;101070.72;5043382;28;20025;-74
2023/11/24 09:57:11;;;;;;;14.27;2.75;;;;;;;5.88;100.00;101083.94;5040234;28;20091;-75
2023/11/24 09:59:37;;;;;;;13.40;2.90;;;;;;;6.25;100.00;101082.31;5043106;28;20516;-74
2023/11/24 10:02:04;;;;;;;13.27;2.30;;;;;;;6.14;100.00;101077.63;5046393;28;20087;-73
2023/11/24 10:04:29;;;;;;;15.38;2.30;;;;;;;6.04;100.00;101081.75;5045063;28;20393;-73
2023/11/24 10:06:54;;;;;;;14.45;2.58;;;;;;;5.95;100.00;101082.34;5047195;28;20083;-73
2023/11/24 10:09:26;;;;;;;14.48;2.60;;;;;;;5.94;100.00;101091.06;5043882;28;20022;-73
2023/11/24 10:11:51;;;;;;;15.05;2.63;;;;;;;5.99;100.00;101088.63;5040598;28;20053;-73
2023/11/24 10:14:21;;;;;;;15.88;2.65;;;;;;;6.28;100.00;101082.38;5039586;28;20072;-73
2023/11/24 10:16:48;;;;;;;16.63;2.50;;;;;;;6.62;100.00;101083.22;5038125;28;20060;-73
2023/11/24 10:19:14;;;;;;;15.60;2.72;;;;;;;6.95;100.00;101082.25;5035936;28;20036;-73
2023/11/24 10:21:43;;;;;;;13.60;2.40;;;;;;;6.93;100.00;101077.78;5046884;28;20353;-73
2023/11/24 10:24:08;;;;;;;13.02;2.67;;;;;;;6.73;100.00;101074.72;5040336;28;20033;-73
2023/11/24 10:26:34;;;;;;;14.40;2.53;;;;;;;6.69;100.00;101073.75;5036822;28;20030;-75
2023/11/24 10:28:59;;;;;;;17.20;2.60;;;;;;;6.69;100.00;101076.38;5037144;28;20025;-75
2023/11/24 10:31:26;;;;;;;12.82;2.35;;;;;;;6.67;100.00;101058.78;5037560;28;20057;-75
2023/11/24 10:33:51;;;;;;;17.65;2.67;;;;;;;6.82;100.00;101071.44;5041819;28;20029;-75
2023/11/24 10:36:19;;;;;;;14.60;2.50;;;;;;;6.93;100.00;101070.81;5045534;28;20168;-75
2023/11/24 10:38:46;;;;;;;16.85;2.60;;;;;;;7.22;100.00;101069.69;5043918;28;20065;-74
2023/11/24 10:41:18;;;;;;;13.90;2.40;;;;;;;8.15;100.00;101054.81;5046527;28;20376;-75
2023/11/24 10:43:48;;;;;;;15.93;2.83;;;;;;;9.25;100.00;101051.28;5044106;28;20035;-75
2023/11/24 10:46:16;;;;;;;20.67;3.03;;;;;;;10.18;100.00;101045.28;5045978;28;20017;-75
2023/11/24 10:48:53;;;;;;;19.67;3.22;;;;;;;10.93;100.00;101036.16;5043526;28;20025;-75
2023/11/24 10:51:32;;;;;;;14.00;2.58;;;;;;;11.76;100.00;101031.22;5045329;28;20071;-75
2023/11/24 10:54:02;;;;;;;18.73;2.97;;;;;;;12.15;100.00;101015.44;5045921;28;20030;-75
2023/11/24 10:56:31;;;;;;;15.60;2.92;;;;;;;12.59;100.00;101019.81;5043903;28;20484;-75
2023/11/24 10:58:57;;;;;;;15.70;2.50;;;;;;;12.88;100.00;101008.28;5045307;28;20036;-75
2023/11/24 11:01:24;;;;;;;16.23;2.55;;;;;;;12.76;100.00;100993.28;5044662;28;20033;-73
2023/11/24 11:03:58;;;;;;;17.45;2.78;;;;;;;13.05;100.00;101000.28;5044337;28;20072;-75
2023/11/24 11:06:41;;;;;;;13.65;2.35;;;;;;;13.20;100.00;100994.88;5044222;28;20053;-73
2023/11/24 11:09:19;;;;;;;11.80;2.40;;;;;;;13.27;100.00;101002.84;5039388;28;20021;-75
2023/11/24 11:12:13;;;;;;;12.73;2.30;;;;;;;13.97;100.00;101006.03;5039928;28;20025;-75